Latest Weather Observations for Noarlunga

IDS60801

Issued at 11:31 pm CDT Monday 23 October 2017 (issued every 30 minutes, with the page automatically refreshed every 10 minutes)

About weather observations | Map of weather stations | Latest weather observations for SA | Other Formats
Station Details ID: 023885 Name: NOARLUNGA Lat: -35.16 Lon: 138.51 Height: 55.0 m
Data from the previous 72 hours. | See also: Recent months at Noarlunga
Date/Time
CDT
Temp
°C
App
Temp
°C
Dew
Point
°C
Rel
Hum
%
Delta-T
°C
Wind Press
QNH
hPa
Press
MSL
hPa
Rain since
9am
mm
Dir  Spd
km/h
Gust
km/h
Spd
kts
Gust
kts
23/11:30pm 15.6 12.9 10.4 71 2.7 ENE 15 24 8 13 - - 0.0
23/11:00pm 15.2 11.8 10.6 74 2.4 E 19 28 10 15 - - 0.0
23/10:30pm 15.2 11.6 10.4 73 2.5 ESE 20 30 11 16 - - 0.0
23/10:00pm 15.5 11.9 10.5 72 2.6 ESE 20 32 11 17 - - 0.0
23/09:30pm 15.8 12.5 10.8 72 2.7 ESE 19 28 10 15 - - 0.0
23/09:00pm 16.1 13.5 10.8 71 2.8 ESE 15 22 8 12 - - 0.0
23/08:30pm 16.9 14.4 11.2 69 3.1 ESE 15 20 8 11 - - 0.0
23/08:00pm 17.5 15.8 11.3 67 3.4 ESE 11 15 6 8 - - 0.0
23/07:30pm 18.3 17.0 11.4 64 3.8 ESE 9 13 5 7 - - 0.0
23/07:00pm 19.1 17.8 11.4 61 4.2 ESE 9 15 5 8 - - 0.0
23/06:30pm 20.2 18.6 11.7 58 4.7 E 11 19 6 10 - - 0.0
23/06:00pm 19.9 18.0 11.7 59 4.5 SE 13 20 7 11 - - 0.0
23/05:30pm 20.2 19.5 11.4 57 4.9 S 6 11 3 6 - - 0.0
23/05:00pm 18.1 17.3 11.0 63 3.8 SW 6 9 3 5 - - 0.0
23/04:30pm 18.2 16.6 10.3 60 4.2 SW 9 13 5 7 - - 0.0
23/04:00pm 19.4 17.9 10.7 57 4.7 WSW 9 15 5 8 - - 0.0
23/03:30pm 18.6 17.4 10.4 59 4.4 SW 7 11 4 6 - - 0.0
23/03:00pm 18.1 16.6 10.5 61 4.1 SW 9 15 5 8 - - 0.0
23/02:30pm 18.4 16.4 10.3 59 4.3 SW 11 19 6 10 - - 0.0
23/02:00pm 18.5 16.9 10.3 59 4.4 SW 9 15 5 8 - - 0.0
23/01:30pm 18.7 17.7 11.0 61 4.2 W 7 11 4 6 - - 0.0
23/01:00pm 17.2 14.5 10.3 64 3.7 W 15 24 8 13 - - 0.0
23/12:30pm 17.7 16.1 10.3 62 3.9 W 9 15 5 8 - - 0.0
23/12:00pm 17.3 15.9 9.7 61 4.0 W 7 13 4 7 - - 0.0
23/11:30am 17.8 16.4 10.9 64 3.7 WNW 9 17 5 9 - - 0.0
23/11:00am 16.7 14.6 9.6 63 3.7 WNW 11 17 6 9 - - 0.0
23/10:30am 16.1 14.3 9.3 64 3.5 W 9 17 5 9 - - 0.0
23/10:00am 15.6 14.1 9.3 66 3.3 NW 7 11 4 6 - - 0.0
23/09:30am 15.4 13.8 8.9 65 3.3 NW 7 13 4 7 - - 0.0
23/09:00am 15.2 13.9 9.1 67 3.1 NNE 6 9 3 5 - - 0.0
23/08:30am 14.7 13.4 9.3 70 2.8 E 6 11 3 6 - - 0.0
23/08:00am 13.3 11.3 8.8 74 2.3 ENE 9 15 5 8 - - 0.0
23/07:30am 12.6 11.0 8.9 78 1.9 E 7 13 4 7 - - 0.0
23/07:00am 11.3 9.9 8.7 84 1.3 ENE 6 11 3 6 - - 0.0
23/06:30am 10.6 8.6 8.5 87 1.0 E 9 15 5 8 - - 0.0
23/06:00am 10.1 8.5 8.0 87 1.0 E 6 9 3 5 - - 0.0
23/05:30am 10.2 8.0 8.0 86 1.1 E 9 13 5 7 - - 0.0
23/05:00am 9.7 8.0 7.5 86 1.0 ESE 6 7 3 4 - - 0.0
23/04:30am 10.0 8.3 7.6 85 1.2 E 6 9 3 5 - - 0.0
23/04:00am 10.3 9.8 7.7 84 1.3 CALM 0 4 0 2 - - 0.0
23/03:30am 10.6 9.3 7.8 83 1.4 SE 4 6 2 3 - - 0.0
23/03:00am 11.3 10.1 8.2 81 1.5 ESE 4 4 2 2 - - 0.0
23/02:30am 11.8 10.6 8.1 78 1.8 SE 4 6 2 3 - - 0.0
23/02:00am 12.7 11.1 8.8 77 2.0 SSE 7 9 4 5 - - 0.0
23/01:30am 13.1 12.2 9.2 77 2.0 S 4 6 2 3 - - 0.0
23/01:00am 13.1 11.9 9.4 78 1.9 SSE 6 7 3 4 - - 0.0
23/12:30am 13.0 11.8 9.4 79 1.8 SSE 6 9 3 5 - - 0.0
23/12:00am 13.0 12.2 9.6 80 1.7 SE 4 6 2 3 - - 0.0
 
Date/Time
CDT
Temp
°C
App
Temp
°C
Dew
Point
°C
Rel
Hum
%
Delta-T
°C
Wind Press
QNH
hPa
Press
MSL
hPa
Rain since
9am
mm
Dir  Spd
km/h
Gust
km/h
Spd
kts
Gust
kts
22/11:30pm 13.0 12.1 9.4 79 1.8 S 4 4 2 2 - - 0.0
22/11:00pm 12.9 12.0 9.2 78 1.9 SSW 4 7 2 4 - - 0.0
22/10:30pm 12.7 10.8 9.2 79 1.8 SSE 9 11 5 6 - - 0.0
22/10:00pm 12.6 10.6 8.7 77 2.0 SE 9 13 5 7 - - 0.0
22/09:30pm 13.4 11.0 8.7 73 2.4 SSE 11 17 6 9 - - 0.0
22/09:00pm 13.4 11.2 8.0 70 2.7 SSE 9 11 5 6 - - 0.0
22/08:30pm 14.1 12.3 8.1 67 3.0 SSE 7 9 4 5 - - 0.0
22/08:00pm 14.4 11.5 8.1 66 3.2 S 13 19 7 10 - - 0.0
22/07:30pm 15.1 12.6 8.1 63 3.5 SSW 11 17 6 9 - - 0.0
22/07:00pm 15.0 11.8 8.5 65 3.3 SW 15 22 8 12 - - 0.0
22/06:30pm 15.3 12.1 8.5 64 3.5 SW 15 24 8 13 - - 0.0
22/06:00pm 15.4 12.2 8.6 64 3.5 SW 15 28 8 15 - - 0.0
22/05:30pm 15.4 11.5 9.3 67 3.1 SW 20 30 11 16 - - 0.0
22/05:00pm 15.8 11.9 9.5 66 3.3 SW 20 30 11 16 - - 0.0
22/04:30pm 16.5 13.1 10.4 67 3.2 SW 19 30 10 16 - - 0.0
22/04:00pm 16.8 12.9 10.9 68 3.2 WSW 22 32 12 17 - - 0.0
22/03:30pm 15.6 12.0 10.6 72 2.7 WSW 20 28 11 15 - - 0.0
22/03:00pm 16.2 12.7 10.9 71 2.8 WSW 20 32 11 17 - - 0.0
22/02:30pm 15.9 12.5 10.4 70 2.9 SW 19 24 10 13 - - 0.0
22/02:00pm 15.3 11.8 10.1 71 2.7 WSW 19 28 10 15 - - 0.0
22/01:30pm 15.5 12.5 9.2 66 3.2 WSW 15 26 8 14 - - 0.0
22/01:00pm 15.6 11.6 9.1 65 3.3 SW 20 28 11 15 - - 0.0
22/12:30pm 15.9 12.9 9.3 65 3.4 SW 15 22 8 12 - - 0.0
22/12:00pm 15.7 12.9 8.7 63 3.6 WSW 13 20 7 11 - - 0.0
22/11:30am 14.7 12.9 9.3 70 2.8 SW 9 19 5 10 - - 0.0
22/11:00am 15.0 13.1 10.4 74 2.4 SW 11 20 6 11 - - 0.0
22/10:30am 13.3 11.0 10.3 82 1.6 SW 13 20 7 11 - - 0.0
22/10:00am 14.1 11.8 8.9 71 2.6 WSW 11 17 6 9 - - 0.0
22/09:30am 13.7 11.8 9.2 74 2.3 SW 9 17 5 9 - - 0.0
22/09:00am 13.9 11.8 8.3 69 2.8 SSW 9 15 5 8 - - 0.0
22/08:30am 13.3 10.8 8.4 72 2.4 SSW 11 19 6 10 - - 0.0
22/08:00am 13.5 10.9 7.9 69 2.8 S 11 15 6 8 - - 0.0
22/07:30am 13.0 10.9 6.8 66 3.0 S 7 13 4 7 - - 0.0
22/07:00am 12.5 11.0 7.0 69 2.7 SSW 4 7 2 4 - - 0.0
22/06:30am 12.2 10.3 6.9 70 2.5 SSW 6 7 3 4 - - 0.0
22/06:00am 11.8 10.0 7.3 74 2.2 SSW 6 7 3 4 - - 0.0
22/05:30am 11.4 10.0 7.3 76 2.0 SSW 4 6 2 3 - - 0.0
22/05:00am 11.3 9.6 7.6 78 1.8 SSE 6 7 3 4 - - 0.0
22/04:30am 11.3 9.6 7.6 78 1.8 S 6 9 3 5 - - 0.0
22/04:00am 11.4 9.6 7.9 79 1.7 SSW 7 9 4 5 - - 0.0
22/03:30am 11.1 8.9 8.0 81 1.5 S 9 15 5 8 - - 0.0
22/03:00am 10.9 9.3 8.1 83 1.4 S 6 7 3 4 - - 0.0
22/02:30am 10.5 8.7 7.9 84 1.3 SSE 7 9 4 5 - - 0.0
22/02:00am 10.2 8.6 8.1 87 1.0 S 6 7 3 4 - - 0.0
22/01:30am 10.4 8.8 8.0 85 1.2 SSE 6 7 3 4 - - 0.0
22/01:00am 10.9 9.1 7.8 81 1.5 SE 7 11 4 6 - - 0.0
22/12:30am 11.6 9.3 7.5 76 2.0 S 9 19 5 10 - - 0.0
22/12:00am 11.6 9.6 7.1 74 2.2 S 7 13 4 7 - - 0.0
 
Date/Time
CDT
Temp
°C
App
Temp
°C
Dew
Point
°C
Rel
Hum
%
Delta-T
°C
Wind Press
QNH
hPa
Press
MSL
hPa
Rain since
9am
mm
Dir  Spd
km/h
Gust
km/h
Spd
kts
Gust
kts
21/11:30pm 11.8 9.8 7.3 74 2.2 S 7 9 4 5 - - 0.0
21/11:00pm 11.7 9.8 7.4 75 2.1 S 7 9 4 5 - - 0.0
21/10:30pm 11.6 9.2 7.1 74 2.2 S 9 11 5 6 - - 0.0
21/10:00pm 11.9 9.7 7.8 76 2.0 SSE 9 13 5 7 - - 0.0
21/09:30pm 12.1 8.6 7.2 72 2.4 SSE 15 24 8 13 - - 0.0
21/09:00pm 13.0 9.6 5.9 62 3.4 S 13 24 7 13 - - 0.0
21/08:30pm 13.3 10.0 6.2 62 3.4 S 13 20 7 11 - - 0.0
21/08:00pm 13.4 9.7 6.5 63 3.3 SSW 15 22 8 12 - - 0.0
21/07:30pm 13.5 9.3 5.7 59 3.7 S 17 30 9 16 - - 0.0
21/07:00pm 13.9 9.7 5.5 57 4.0 S 17 24 9 13 - - 0.0
21/06:30pm 14.0 9.7 5.4 56 4.1 S 17 28 9 15 - - 0.0
21/06:00pm 14.6 10.4 5.9 56 4.2 S 17 28 9 15 - - 0.0
21/05:30pm 15.1 10.6 5.9 54 4.4 S 19 28 10 15 - - 0.0
21/05:00pm 15.2 10.7 6.0 54 4.4 S 19 26 10 14 - - 0.0
21/04:30pm 15.9 11.7 5.8 51 4.9 S 17 22 9 12 - - 0.0
21/04:00pm 16.2 12.1 6.3 52 4.8 S 17 28 9 15 - - 0.0
21/03:30pm 16.3 11.7 6.7 53 4.7 S 20 32 11 17 - - 0.0
21/03:00pm 17.2 12.6 6.4 49 5.3 SW 20 33 11 18 - - 0.0
21/02:30pm 17.1 13.7 5.7 47 5.5 S 13 26 7 14 - - 0.0
21/02:00pm 17.3 13.1 5.6 46 5.7 SSW 17 30 9 16 - - 0.0
21/01:30pm 16.3 11.8 5.9 50 5.0 WSW 19 28 10 15 - - 0.0
21/01:00pm 16.9 13.2 6.1 49 5.3 S 15 24 8 13 - - 0.0
21/12:30pm 16.8 13.5 6.3 50 5.1 S 13 20 7 11 - - 0.0
21/12:00pm 17.2 13.4 5.8 47 5.5 SSE 15 24 8 13 - - 0.0
21/11:30am 16.5 13.1 5.8 49 5.2 SSE 13 22 7 12 - - 0.0
21/11:00am 15.7 12.4 6.4 54 4.5 SSE 13 20 7 11 - - 0.0
21/10:30am 16.1 12.8 6.3 52 4.8 SE 13 20 7 11 - - 0.0
21/10:00am 14.3 10.9 5.7 56 4.1 SSE 13 26 7 14 - - 0.0
21/09:30am 14.1 10.4 6.2 59 3.8 S 15 22 8 12 - - 0.0
21/09:00am 13.5 10.5 5.9 60 3.6 SSE 11 19 6 10 - - 0.0
21/08:30am 12.9 8.2 5.3 60 3.5 SSE 19 28 10 15 - - 0.0
21/08:00am 12.5 8.6 5.2 61 3.4 SSE 15 22 8 12 - - 0.0
21/07:30am 12.1 8.6 5.3 63 3.2 SSE 13 20 7 11 - - 0.0
21/07:00am 11.8 9.1 5.4 65 3.0 S 9 11 5 6 - - 0.0
21/06:30am 11.8 9.1 5.4 65 3.0 SSE 9 13 5 7 - - 0.0
21/06:00am 11.8 9.0 5.2 64 3.0 S 9 13 5 7 - - 0.0
21/05:30am 11.7 8.5 5.1 64 3.0 SSE 11 20 6 11 - - 0.0
21/05:00am 11.7 9.3 5.3 65 3.0 SSE 7 13 4 7 - - 0.0
21/04:30am 11.6 8.8 5.3 65 2.9 SSE 9 13 5 7 - - 0.0
21/04:00am 11.5 8.3 4.9 64 3.0 SSE 11 17 6 9 - - 0.0
21/03:30am 11.8 7.8 5.0 63 3.1 SSE 15 20 8 11 - - 0.0
21/03:00am 11.8 8.6 5.0 63 3.1 SSE 11 20 6 11 - - 0.0
21/02:30am 11.7 6.3 4.7 62 3.2 SSE 22 35 12 19 - - 0.0
21/02:00am 12.0 8.1 5.2 63 3.1 SSE 15 26 8 14 - - 0.0
21/01:30am 11.9 8.4 5.3 64 3.1 SSE 13 19 7 10 - - 0.0
21/01:00am 11.6 7.6 5.0 64 3.0 SSE 15 22 8 12 - - 0.0
21/12:30am 11.6 6.8 4.8 63 3.1 SSE 19 22 10 12 - - 0.0
21/12:00am 11.1 7.4 4.6 64 2.9 SSE 13 26 7 14 - - 0.0

Other Formats:

Comma delimited format used in spreadsheet applications
http://www.bom.gov.au/fwo/IDS60801/IDS60801.94808.axf

JavaScript Object Notation format (JSON) in row-major order
http://www.bom.gov.au/fwo/IDS60801/IDS60801.94808.json